Time;durP1;ratioP1;P1;durP2;ratioP2;P2;SDS_P1;SDS_P2;PMS_P1;PMS_P2;Temp;Humidity;BMP_temperature;BMP_pressure;BME280_temperature;BME280_humidity;BME280_pressure;Samples;Min_cycle;Max_cycle;Signal;HPM_P1;HPM_P2
2022/11/27 00:00:42;;;;;;;14.93;9.35;;;;;;;2.49;100.00;101612.97;5049827;28;20119;-70
2022/11/27 00:03:07;;;;;;;15.10;9.70;;;;;;;2.79;100.00;101634.25;5049817;28;20391;-73
2022/11/27 00:05:33;;;;;;;15.70;9.70;;;;;;;2.74;100.00;101601.59;5049593;28;20403;-73
2022/11/27 00:07:58;;;;;;;13.38;8.93;;;;;;;3.15;100.00;101650.94;5049989;28;20029;-70
2022/11/27 00:10:24;;;;;;;13.68;8.20;;;;;;;2.62;100.00;101627.66;5051002;28;20029;-71
2022/11/27 00:12:49;;;;;;;25.35;13.68;;;;;;;2.72;100.00;101664.31;5054028;28;20021;-73
2022/11/27 00:15:15;;;;;;;15.48;8.77;;;;;;;2.42;100.00;101637.03;5053858;28;20029;-74
2022/11/27 00:17:41;;;;;;;16.17;11.77;;;;;;;1.92;100.00;101585.91;5053931;28;20032;-73
2022/11/27 00:20:07;;;;;;;20.33;10.53;;;;;;;1.89;100.00;101624.69;5067844;28;20028;-73
2022/11/27 00:22:32;;;;;;;15.70;9.40;;;;;;;1.88;100.00;101671.31;5060711;28;20048;-73
2022/11/27 00:24:58;;;;;;;16.53;9.03;;;;;;;1.80;100.00;101677.34;5073024;28;20398;-72
2022/11/27 00:27:23;;;;;;;457.53;201.83;;;;;;;1.59;100.00;101620.28;5072705;28;20025;-73
2022/11/27 00:29:49;;;;;;;278.10;114.77;;;;;;;2.07;100.00;101670.44;5072633;28;20025;-73
2022/11/27 00:32:14;;;;;;;91.60;40.47;;;;;;;2.13;100.00;101677.72;5072425;28;20486;-70
2022/11/27 00:34:40;;;;;;;39.63;19.90;;;;;;;2.05;100.00;101683.00;5002866;28;20060;-71
2022/11/27 00:37:06;;;;;;;16.63;9.70;;;;;;;1.87;100.00;101683.88;5043861;28;20037;-72
2022/11/27 00:39:32;;;;;;;16.17;8.70;;;;;;;2.13;100.00;101686.28;5053585;28;20021;-71
2022/11/27 00:41:57;;;;;;;14.00;8.47;;;;;;;2.25;100.00;101689.91;5053624;28;20082;-72
2022/11/27 00:44:23;;;;;;;15.10;8.23;;;;;;;2.42;100.00;101682.91;5049319;28;20448;-72
2022/11/27 00:46:48;;;;;;;14.07;8.02;;;;;;;2.36;100.00;101695.97;5063585;28;20445;-73
2022/11/27 00:49:16;;;;;;;15.48;8.45;;;;;;;2.28;100.00;101698.59;5053025;28;20049;-71
2022/11/27 00:51:42;;;;;;;15.80;8.18;;;;;;;2.22;100.00;101696.41;5053199;28;20025;-72
2022/11/27 00:54:07;;;;;;;14.50;8.67;;;;;;;2.38;100.00;101689.38;5052819;28;20052;-71
2022/11/27 00:56:37;;;;;;;12.40;8.57;;;;;;;2.58;100.00;101685.16;5052988;28;20036;-73
2022/11/27 00:59:04;;;;;;;13.77;9.52;;;;;;;2.75;100.00;101684.09;5053025;28;20067;-70
2022/11/27 01:01:40;;;;;;;14.82;7.97;;;;;;;2.94;100.00;101685.69;5052605;28;20087;-71
2022/11/27 01:04:08;;;;;;;12.77;7.80;;;;;;;2.52;100.00;101639.63;5044701;28;20032;-72
2022/11/27 01:06:33;;;;;;;14.85;7.60;;;;;;;2.56;100.00;101684.13;5056362;28;20091;-72
2022/11/27 01:08:59;;;;;;;13.18;8.82;;;;;;;2.47;100.00;101673.09;5052836;28;20029;-72
2022/11/27 01:11:31;;;;;;;14.32;8.60;;;;;;;2.58;100.00;101687.72;5052892;28;20043;-73
2022/11/27 01:14:06;;;;;;;14.93;8.35;;;;;;;2.67;100.00;101688.50;5052291;28;20025;-72
2022/11/27 01:16:33;;;;;;;14.15;7.97;;;;;;;2.60;100.00;101681.06;5052586;28;20407;-72
2022/11/27 01:19:00;;;;;;;14.80;8.38;;;;;;;2.64;100.00;101685.72;5060822;28;20017;-72
2022/11/27 01:21:29;;;;;;;12.02;8.63;;;;;;;2.53;100.00;101654.16;5057637;28;20036;-70
2022/11/27 01:23:54;;;;;;;14.55;8.00;;;;;;;2.79;100.00;101678.50;5066489;28;20079;-73
2022/11/27 01:26:20;;;;;;;13.10;7.95;;;;;;;2.73;100.00;101662.69;5052281;28;20036;-74
2022/11/27 01:28:46;;;;;;;17.10;8.32;;;;;;;2.50;100.00;101636.03;5052184;28;20116;-73
2022/11/27 01:31:15;;;;;;;18.45;8.88;;;;;;;2.42;100.00;101667.63;5052592;28;20116;-74
2022/11/27 01:33:41;;;;;;;17.00;8.40;;;;;;;2.56;100.00;101674.81;5052127;28;20044;-72
2022/11/27 01:36:09;;;;;;;16.42;8.82;;;;;;;2.69;100.00;101658.97;5052361;28;20032;-72
2022/11/27 01:38:34;;;;;;;13.63;8.90;;;;;;;2.92;100.00;101672.81;5052580;28;20029;-70
2022/11/27 01:41:02;;;;;;;15.45;7.30;;;;;;;2.90;100.00;101667.59;5052533;28;20444;-77
2022/11/27 01:43:38;;;;;;;17.48;8.38;;;;;;;2.88;100.00;101673.31;5052296;28;20533;-73
2022/11/27 01:46:08;;;;;;;11.50;7.82;;;;;;;2.36;100.00;101583.84;5052146;28;20032;-74
2022/11/27 01:48:33;;;;;;;13.13;8.35;;;;;;;2.80;100.00;101667.53;5052107;28;20395;-73
2022/11/27 01:50:59;;;;;;;14.52;7.95;;;;;;;2.57;100.00;101630.72;5051920;28;20017;-75
2022/11/27 01:53:24;;;;;;;15.98;8.60;;;;;;;2.48;100.00;101614.63;5052419;28;20025;-73
2022/11/27 01:55:57;;;;;;;13.48;8.15;;;;;;;2.31;100.00;101600.38;5052000;28;20033;-75
2022/11/27 01:58:26;;;;;;;15.80;8.35;;;;;;;2.55;100.00;101660.25;5051945;28;20114;-75
2022/11/27 02:00:52;;;;;;;14.50;8.85;;;;;;;2.55;100.00;101641.53;5051937;28;20025;-73
2022/11/27 02:03:17;;;;;;;17.77;9.23;;;;;;;2.39;100.00;101667.31;5052089;28;20106;-72
2022/11/27 02:05:43;;;;;;;14.97;10.13;;;;;;;2.06;100.00;101659.34;5051770;28;20060;-71
2022/11/27 02:08:12;;;;;;;16.60;9.30;;;;;;;2.04;100.00;101642.13;5051630;28;20028;-74
2022/11/27 02:10:49;;;;;;;21.13;9.75;;;;;;;2.31;100.00;101666.66;5051544;28;20060;-71
2022/11/27 02:13:24;;;;;;;16.23;9.60;;;;;;;2.48;100.00;101663.06;5051862;28;20073;-74
2022/11/27 02:15:59;;;;;;;14.80;9.03;;;;;;;2.68;100.00;101664.81;5051936;28;20036;-73
2022/11/27 02:18:37;;;;;;;13.32;8.45;;;;;;;2.83;100.00;101661.78;5055164;28;20056;-74
2022/11/27 02:21:14;;;;;;;15.68;9.73;;;;;;;2.72;100.00;101628.63;5059701;28;20036;-73
2022/11/27 02:24:12;;;;;;;16.65;8.77;;;;;;;2.99;100.00;101664.03;5051505;28;20112;-69
2022/11/27 02:27:00;;;;;;;21.23;9.88;;;;;;;2.98;100.00;101658.06;4989832;28;20081;-73
2022/11/27 02:29:30;;;;;;;15.85;9.63;;;;;;;2.95;100.00;101667.97;4990006;28;20528;-72
2022/11/27 02:32:34;;;;;;;15.25;9.98;;;;;;;2.88;100.00;101668.22;4990341;28;20062;-76
2022/11/27 02:35:11;;;;;;;14.85;8.93;;;;;;;2.75;100.00;101666.22;4931150;29;20115;-72
2022/11/27 02:37:48;;;;;;;12.93;8.57;;;;;;;2.65;100.00;101663.66;4931966;29;20130;-69
2022/11/27 02:40:22;;;;;;;14.60;9.65;;;;;;;2.58;100.00;101654.56;4932055;29;20032;-69
2022/11/27 02:42:51;;;;;;;12.73;8.53;;;;;;;2.56;100.00;101658.63;4932079;29;20040;-69
2022/11/27 02:45:23;;;;;;;15.10;9.53;;;;;;;2.10;100.00;101600.25;4931752;29;20028;-69
2022/11/27 02:47:49;;;;;;;14.43;8.70;;;;;;;2.36;100.00;101675.59;4932120;29;20074;-70
2022/11/27 02:50:24;;;;;;;12.85;8.65;;;;;;;2.09;100.00;101626.53;4931724;29;20040;-70
2022/11/27 02:52:52;;;;;;;16.93;8.50;;;;;;;2.38;100.00;101674.09;4931762;29;20114;-69
2022/11/27 02:55:23;;;;;;;12.87;8.20;;;;;;;2.42;100.00;101673.59;4931906;29;20048;-70
2022/11/27 02:57:54;;;;;;;14.25;8.57;;;;;;;2.45;100.00;101674.63;4931801;29;20798;-70
2022/11/27 03:00:20;;;;;;;15.95;8.82;;;;;;;2.41;100.00;101668.38;4931839;29;20541;-69
2022/11/27 03:02:59;;;;;;;16.52;9.25;;;;;;;2.45;100.00;101664.44;4941749;28;20125;-69
2022/11/27 03:05:29;;;;;;;13.77;8.48;;;;;;;2.42;100.00;101681.22;4969783;28;20059;-71
2022/11/27 03:08:10;;;;;;;;;;;;;;;2.40;100.00;101676.75;4977475;28;20038;-69
2022/11/27 03:10:50;;;;;;;15.60;9.30;;;;;;;2.50;100.00;101668.28;5051110;28;19928;-72
2022/11/27 03:13:16;;;;;;;14.90;8.13;;;;;;;2.53;100.00;101671.09;5051103;28;20029;-75
2022/11/27 03:15:59;;;;;;;15.40;8.55;;;;;;;2.55;100.00;101682.31;5051134;28;20055;-70
2022/11/27 03:18:46;;;;;;;17.30;8.98;;;;;;;2.56;100.00;101668.81;5051454;28;20025;-69
2022/11/27 03:21:27;;;;;;;14.98;9.23;;;;;;;2.74;100.00;101688.31;5049673;28;20067;-75
2022/11/27 03:23:53;;;;;;;18.35;9.68;;;;;;;2.84;100.00;101691.66;5051267;28;20028;-73
2022/11/27 03:26:18;;;;;;;15.00;9.10;;;;;;;2.86;100.00;101674.84;5031943;28;20060;-75
2022/11/27 03:28:46;;;;;;;16.45;9.95;;;;;;;2.92;100.00;101688.13;5050795;28;20032;-70
2022/11/27 03:31:12;;;;;;;17.15;10.52;;;;;;;2.98;100.00;101670.81;5050580;28;20499;-70
2022/11/27 03:33:38;;;;;;;16.52;10.48;;;;;;;2.99;100.00;101656.38;5050579;28;20029;-73
2022/11/27 03:36:15;;;;;;;15.55;10.02;;;;;;;3.28;100.00;101684.41;5050467;28;20022;-76
2022/11/27 03:38:42;;;;;;;18.10;11.35;;;;;;;3.29;100.00;101693.88;5050599;28;20074;-73
2022/11/27 03:41:26;;;;;;;19.27;11.40;;;;;;;3.31;100.00;101694.88;5050625;28;20025;-70
2022/11/27 03:44:09;;;;;;;21.02;10.98;;;;;;;3.36;100.00;101680.84;5050697;28;20086;-72
2022/11/27 03:46:41;;;;;;;21.58;10.52;;;;;;;3.17;100.00;101652.88;5050192;28;20075;-72
2022/11/27 03:49:26;;;;;;;21.48;13.15;;;;;;;2.88;100.00;101607.00;5050416;28;20441;-71
2022/11/27 03:52:05;;;;;;;23.70;12.18;;;;;;;3.44;100.00;101691.75;5050515;28;20056;-70
2022/11/27 03:55:12;;;;;;;21.02;10.98;;;;;;;3.53;100.00;101696.72;5050543;28;20028;-71
2022/11/27 03:57:57;;;;;;;27.05;11.15;;;;;;;3.27;100.00;101656.22;4950355;29;20041;-72
2022/11/27 04:00:23;;;;;;;23.33;10.05;;;;;;;3.46;100.00;101687.63;4950239;29;20028;-73
2022/11/27 04:02:51;;;;;;;18.70;9.10;;;;;;;3.47;100.00;101697.09;4950158;29;20044;-70
2022/11/27 04:05:18;;;;;;;18.88;9.35;;;;;;;3.42;100.00;101687.25;4949877;29;20494;-72
2022/11/27 04:07:43;;;;;;;22.50;9.38;;;;;;;3.33;100.00;101684.81;4950001;29;20469;-70
2022/11/27 04:10:10;;;;;;;24.33;10.30;;;;;;;3.27;100.00;101661.31;4950060;29;20043;-72
2022/11/27 04:12:35;;;;;;;20.48;9.30;;;;;;;3.45;100.00;101697.72;4950027;29;20536;-70
2022/11/27 04:15:00;;;;;;;22.58;9.60;;;;;;;3.42;100.00;101693.25;4950026;29;20047;-70
2022/11/27 04:17:26;;;;;;;29.42;10.32;;;;;;;3.34;100.00;101690.06;4933888;29;20043;-70
2022/11/27 04:19:52;;;;;;;21.48;10.73;;;;;;;3.37;100.00;101687.75;4949983;29;20118;-73
2022/11/27 04:22:17;;;;;;;17.35;8.95;;;;;;;3.30;100.00;101677.81;4950002;29;20086;-73
2022/11/27 04:24:43;;;;;;;16.15;8.23;;;;;;;3.29;100.00;101677.63;4949839;29;20039;-73
2022/11/27 04:27:08;;;;;;;23.85;8.90;;;;;;;3.35;100.00;101686.75;4949820;29;20047;-70
2022/11/27 04:29:35;;;;;;;18.17;8.73;;;;;;;3.28;100.00;101692.06;4949975;29;20031;-71
2022/11/27 04:32:01;;;;;;;15.40;9.20;;;;;;;3.15;100.00;101682.44;4933857;29;20058;-69
2022/11/27 04:34:26;;;;;;;17.00;8.80;;;;;;;3.06;100.00;101682.53;5000668;28;20083;-72
2022/11/27 04:36:52;;;;;;;18.90;9.20;;;;;;;3.13;100.00;101683.06;5050235;28;20025;-75
2022/11/27 04:39:17;;;;;;;16.88;8.90;;;;;;;3.13;100.00;101686.53;5050183;28;20035;-74
2022/11/27 04:41:43;;;;;;;16.02;9.20;;;;;;;3.06;100.00;101669.78;5032221;28;20029;-74
2022/11/27 04:44:10;;;;;;;18.13;9.35;;;;;;;2.90;100.00;101646.28;5050369;28;20083;-70
2022/11/27 04:46:35;;;;;;;16.77;9.15;;;;;;;3.01;100.00;101665.06;5049880;28;20032;-70
2022/11/27 04:49:01;;;;;;;18.67;8.63;;;;;;;3.05;100.00;101691.00;5048466;28;20029;-73
2022/11/27 04:51:26;;;;;;;19.52;10.30;;;;;;;2.92;100.00;101677.91;5050335;28;20025;-76
2022/11/27 04:53:52;;;;;;;18.80;9.38;;;;;;;3.08;100.00;101698.00;5049862;28;20037;-69
2022/11/27 04:56:17;;;;;;;20.58;8.63;;;;;;;2.90;100.00;101698.19;5049937;28;20044;-69
2022/11/27 04:58:42;;;;;;;32.03;12.05;;;;;;;2.86;100.00;101690.13;5052835;28;20060;-75
2022/11/27 05:01:08;;;;;;;23.73;10.57;;;;;;;2.89;100.00;101686.19;5053367;28;20495;-74
2022/11/27 05:03:34;;;;;;;23.27;11.35;;;;;;;2.92;100.00;101688.13;5053301;28;20044;-71
2022/11/27 05:05:59;;;;;;;22.23;10.80;;;;;;;2.84;100.00;101686.53;5053397;28;20558;-69
2022/11/27 05:08:25;;;;;;;22.98;10.23;;;;;;;2.65;100.00;101656.00;5053533;28;20467;-73
2022/11/27 05:11:01;;;;;;;24.30;11.98;;;;;;;2.72;100.00;101654.13;5053494;28;20029;-70
2022/11/27 05:13:27;;;;;;;26.35;12.15;;;;;;;2.92;100.00;101700.88;5053527;28;20025;-74
2022/11/27 05:15:52;;;;;;;23.65;10.57;;;;;;;2.95;100.00;101692.59;5053244;28;20045;-72
2022/11/27 05:18:18;;;;;;;25.40;11.18;;;;;;;2.79;100.00;101704.03;5053324;28;20025;-72
2022/11/27 05:20:43;;;;;;;21.58;11.73;;;;;;;2.68;100.00;101709.78;5053277;28;20029;-69
2022/11/27 05:23:08;;;;;;;21.00;12.63;;;;;;;2.70;100.00;101719.38;5053192;28;20041;-69
2022/11/27 05:25:34;;;;;;;22.63;12.05;;;;;;;2.71;100.00;101705.88;5053189;28;20029;-73
2022/11/27 05:27:59;;;;;;;22.15;12.07;;;;;;;2.65;100.00;101699.34;5052922;28;20044;-73
2022/11/27 05:30:25;;;;;;;20.58;12.07;;;;;;;2.67;100.00;101701.25;5052764;28;20028;-72
2022/11/27 05:32:50;;;;;;;23.30;12.15;;;;;;;2.40;100.00;101671.66;5052855;28;20439;-73
2022/11/27 05:35:15;;;;;;;26.67;10.82;;;;;;;2.50;100.00;101716.72;5052681;28;20403;-74
2022/11/27 05:37:41;;;;;;;24.48;11.48;;;;;;;2.14;100.00;101703.34;5034203;28;20037;-72
2022/11/27 05:40:07;;;;;;;24.05;11.45;;;;;;;2.17;100.00;101720.53;5053008;28;20029;-69
2022/11/27 05:42:32;;;;;;;23.75;11.63;;;;;;;2.02;100.00;101680.22;5051605;28;20064;-70
2022/11/27 05:44:58;;;;;;;27.75;12.40;;;;;;;2.24;100.00;101720.34;5052522;28;20410;-75
2022/11/27 05:47:23;;;;;;;24.70;14.05;;;;;;;2.15;100.00;101711.88;5052405;28;20474;-70
2022/11/27 05:49:48;;;;;;;26.37;13.23;;;;;;;2.24;100.00;101725.44;5052739;28;20463;-70
2022/11/27 05:52:14;;;;;;;40.27;15.30;;;;;;;1.95;100.00;101713.50;5052729;28;20029;-69
2022/11/27 05:54:39;;;;;;;36.25;14.52;;;;;;;1.73;100.00;101703.91;5052704;28;20059;-70
2022/11/27 05:57:05;;;;;;;33.80;18.33;;;;;;;1.69;100.00;101688.19;5052333;28;20033;-74
2022/11/27 05:59:30;;;;;;;41.55;25.10;;;;;;;1.70;100.00;101690.00;5052667;28;20029;-74
2022/11/27 06:01:55;;;;;;;37.10;22.63;;;;;;;1.89;100.00;101716.38;5052367;28;20032;-70
2022/11/27 06:04:21;;;;;;;28.47;17.73;;;;;;;1.58;100.00;101700.84;5052718;28;20127;-70
2022/11/27 06:06:46;;;;;;;24.40;15.07;;;;;;;1.81;100.00;101734.25;5052355;28;20047;-72
2022/11/27 06:09:12;;;;;;;23.83;13.53;;;;;;;1.82;100.00;101729.31;5051871;28;20028;-74
2022/11/27 06:11:37;;;;;;;32.75;16.77;;;;;;;1.78;100.00;101727.22;5052356;28;20472;-74
2022/11/27 06:14:06;;;;;;;32.90;18.50;;;;;;;1.83;100.00;101743.81;5058764;28;20040;-74
2022/11/27 06:16:32;;;;;;;29.93;15.73;;;;;;;1.88;100.00;101744.25;5064088;28;20025;-69
2022/11/27 06:18:57;;;;;;;27.27;13.70;;;;;;;1.85;100.00;101756.72;5051669;28;20043;-75
2022/11/27 06:21:23;;;;;;;23.77;15.07;;;;;;;1.70;100.00;101746.88;5051811;28;20037;-73
2022/11/27 06:23:51;;;;;;;29.87;13.93;;;;;;;1.65;100.00;101758.28;5051695;28;20037;-71
2022/11/27 06:26:20;;;;;;;21.77;14.10;;;;;;;1.58;100.00;101767.03;5016051;28;20037;-75
2022/11/27 06:28:48;;;;;;;38.03;19.93;;;;;;;1.65;100.00;101743.03;5033745;28;20464;-69
2022/11/27 06:31:19;;;;;;;34.77;19.93;;;;;;;1.88;100.00;101749.34;5051766;28;20043;-72
2022/11/27 06:33:46;;;;;;;30.77;16.17;;;;;;;1.90;100.00;101736.00;5051609;28;20029;-69
2022/11/27 06:36:11;;;;;;;23.33;15.63;;;;;;;1.97;100.00;101732.38;5051668;28;20032;-73
2022/11/27 06:38:37;;;;;;;29.07;14.97;;;;;;;2.07;100.00;101745.19;5051545;28;20110;-69
2022/11/27 06:41:05;;;;;;;27.23;15.88;;;;;;;2.24;100.00;101751.84;5051386;28;20029;-69
2022/11/27 06:43:31;;;;;;;25.03;14.37;;;;;;;2.22;100.00;101752.47;5051216;28;20487;-73
2022/11/27 06:45:58;;;;;;;28.63;13.67;;;;;;;2.13;100.00;101742.34;5051059;28;20037;-72
2022/11/27 06:48:25;;;;;;;21.98;13.73;;;;;;;2.38;100.00;101764.91;5051960;28;20460;-67
2022/11/27 06:50:50;;;;;;;21.65;15.95;;;;;;;2.51;100.00;101749.97;5067073;28;20506;-69
2022/11/27 06:53:17;;;;;;;24.40;14.68;;;;;;;2.63;100.00;101742.56;5071470;28;20029;-72
2022/11/27 06:55:43;;;;;;;24.17;15.48;;;;;;;2.82;100.00;101749.28;5071321;28;20028;-74
2022/11/27 06:58:08;;;;;;;22.77;13.95;;;;;;;2.83;100.00;101743.41;5069914;28;20029;-72
2022/11/27 07:00:34;;;;;;;26.05;14.68;;;;;;;2.96;100.00;101759.03;5070841;28;20411;-73
2022/11/27 07:03:00;;;;;;;23.25;12.93;;;;;;;3.09;100.00;101755.94;5051707;28;20048;-70
2022/11/27 07:05:25;;;;;;;24.05;14.10;;;;;;;2.88;100.00;101704.81;5070718;28;20048;-75
2022/11/27 07:07:50;;;;;;;25.35;13.13;;;;;;;3.11;100.00;101728.00;5070417;28;20024;-70
2022/11/27 07:10:16;;;;;;;27.73;13.82;;;;;;;3.30;100.00;101735.59;5070658;28;20031;-72
2022/11/27 07:12:41;;;;;;;21.35;13.77;;;;;;;3.52;100.00;101751.09;5070272;28;20426;-70
2022/11/27 07:15:08;;;;;;;42.22;26.60;;;;;;;3.38;100.00;101709.97;5070350;28;20028;-70
2022/11/27 07:17:33;;;;;;;26.30;15.80;;;;;;;3.54;100.00;101754.69;5069913;28;20077;-71
2022/11/27 07:19:58;;;;;;;24.45;16.00;;;;;;;3.59;100.00;101747.41;5068264;28;20029;-72
2022/11/27 07:22:25;;;;;;;24.88;15.95;;;;;;;3.63;100.00;101741.81;5051303;28;20037;-71
2022/11/27 07:24:51;;;;;;;26.65;17.52;;;;;;;3.75;100.00;101745.44;5069027;28;20029;-75
2022/11/27 07:27:16;;;;;;;28.02;18.30;;;;;;;3.73;100.00;101740.16;5068920;28;20410;-71
2022/11/27 07:29:41;;;;;;;24.95;17.70;;;;;;;3.79;100.00;101747.47;5069143;28;20060;-71
2022/11/27 07:32:07;;;;;;;28.48;16.65;;;;;;;3.88;100.00;101739.69;5069217;28;20031;-75
2022/11/27 07:34:32;;;;;;;25.17;16.92;;;;;;;4.02;100.00;101739.16;5067357;28;20047;-74
2022/11/27 07:36:58;;;;;;;26.95;17.80;;;;;;;4.04;100.00;101723.97;5068735;28;20025;-74
2022/11/27 07:39:24;;;;;;;28.50;17.58;;;;;;;4.12;100.00;101747.63;5069031;28;20098;-74
2022/11/27 07:41:50;;;;;;;23.88;16.10;;;;;;;4.29;100.00;101749.03;5064381;28;20074;-71
2022/11/27 07:44:15;;;;;;;24.65;17.67;;;;;;;4.25;100.00;101726.50;5056389;28;20016;-70
2022/11/27 07:46:41;;;;;;;26.77;17.65;;;;;;;4.37;100.00;101720.78;5049711;28;20487;-70
2022/11/27 07:49:07;;;;;;;24.35;17.33;;;;;;;4.27;100.00;101712.22;5050088;28;20040;-70
2022/11/27 07:51:32;;;;;;;29.23;18.85;;;;;;;4.36;100.00;101743.63;5050180;28;20079;-73
2022/11/27 07:53:58;;;;;;;23.73;16.27;;;;;;;4.52;100.00;101738.13;5050128;28;20053;-70
2022/11/27 07:56:23;;;;;;;32.08;17.15;;;;;;;4.44;100.00;101713.59;5049276;28;20439;-73
2022/11/27 07:58:49;;;;;;;26.00;16.70;;;;;;;4.64;100.00;101734.00;5038107;28;20043;-74
2022/11/27 08:01:17;;;;;;;25.77;17.17;;;;;;;4.70;100.00;101737.06;5048378;28;20025;-75
2022/11/27 08:03:45;;;;;;;22.48;16.88;;;;;;;4.64;100.00;101716.09;5049713;28;20059;-74
2022/11/27 08:06:18;;;;;;;26.45;16.95;;;;;;;4.88;100.00;101734.19;5062891;28;20114;-71
2022/11/27 08:08:44;;;;;;;28.05;18.35;;;;;;;4.86;100.00;101720.41;5049815;28;20028;-74
2022/11/27 08:11:25;;;;;;;36.20;23.83;;;;;;;4.81;100.00;101717.47;5049716;28;20041;-74
2022/11/27 08:13:55;;;;;;;35.53;29.38;;;;;;;4.75;100.00;101700.72;5049895;28;20028;-74
2022/11/27 08:16:21;;;;;;;29.33;21.35;;;;;;;4.62;100.00;101707.44;5044877;28;20452;-72
2022/11/27 08:18:46;;;;;;;29.80;19.75;;;;;;;4.63;100.00;101700.63;5054206;28;20048;-71
2022/11/27 08:21:12;;;;;;;28.02;24.65;;;;;;;4.52;100.00;101656.28;5068178;28;20039;-71
2022/11/27 08:23:37;;;;;;;22.05;15.70;;;;;;;4.89;100.00;101704.41;5068875;28;20044;-72
2022/11/27 08:26:07;;;;;;;24.85;14.55;;;;;;;4.90;100.00;101701.97;5051034;28;20032;-76
2022/11/27 08:28:33;;;;;;;27.35;15.30;;;;;;;4.75;100.00;101664.91;5069053;28;20600;-70
2022/11/27 08:31:00;;;;;;;24.08;15.38;;;;;;;5.07;100.00;101703.31;5069524;28;20031;-73
2022/11/27 08:33:26;;;;;;;22.75;14.68;;;;;;;5.21;100.00;101696.69;5072361;28;20032;-74
2022/11/27 08:35:51;;;;;;;20.55;14.13;;;;;;;5.43;100.00;101706.03;5067732;28;20024;-73
2022/11/27 08:38:17;;;;;;;24.13;15.50;;;;;;;5.56;100.00;101689.94;5056349;28;20162;-73
2022/11/27 08:40:42;;;;;;;22.02;15.07;;;;;;;5.60;100.00;101681.75;5072459;28;20024;-73
2022/11/27 08:43:08;;;;;;;26.52;16.67;;;;;;;5.72;100.00;101690.38;5037203;28;20032;-72
2022/11/27 08:45:37;;;;;;;26.77;15.52;;;;;;;5.80;100.00;101686.69;5073314;28;20410;-74
2022/11/27 08:48:03;;;;;;;26.52;16.45;;;;;;;5.82;100.00;101664.66;4988922;28;20419;-73
2022/11/27 08:50:29;;;;;;;18.40;13.93;;;;;;;5.94;100.00;101664.69;5073444;28;20027;-71
2022/11/27 08:52:56;;;;;;;19.98;13.45;;;;;;;6.05;100.00;101667.19;5073655;28;20149;-70
2022/11/27 08:55:21;;;;;;;16.65;12.57;;;;;;;6.21;100.00;101666.66;5073405;28;20093;-70
2022/11/27 08:57:47;;;;;;;20.30;13.57;;;;;;;6.14;100.00;101624.28;5073324;28;20119;-69
2022/11/27 09:00:12;;;;;;;18.67;13.32;;;;;;;6.47;100.00;101653.19;5073283;28;20024;-72
2022/11/27 09:02:38;;;;;;;24.52;15.57;;;;;;;6.68;100.00;101664.09;5073174;28;20150;-74
2022/11/27 09:05:04;;;;;;;23.02;13.93;;;;;;;6.68;100.00;101634.97;5073218;28;20089;-73
2022/11/27 09:07:30;;;;;;;23.02;12.52;;;;;;;6.96;100.00;101661.81;5073062;28;20033;-69
2022/11/27 09:09:55;;;;;;;18.75;12.80;;;;;;;6.97;100.00;101648.19;5073266;28;20089;-70
2022/11/27 09:12:21;;;;;;;18.55;13.07;;;;;;;7.06;100.00;101653.06;5055389;28;20025;-73
2022/11/27 09:14:46;;;;;;;19.13;12.63;;;;;;;6.89;100.00;101627.91;5073130;28;20082;-70
2022/11/27 09:17:12;;;;;;;22.38;13.15;;;;;;;7.00;100.00;101655.22;5073173;28;20403;-72
2022/11/27 09:19:37;;;;;;;19.60;13.13;;;;;;;7.18;100.00;101670.13;5072862;28;20036;-71
2022/11/27 09:22:02;;;;;;;18.67;12.40;;;;;;;7.10;100.00;101657.66;5072976;28;20029;-74
2022/11/27 09:24:28;;;;;;;19.13;11.88;;;;;;;7.13;100.00;101657.88;5072837;28;20103;-77
2022/11/27 09:26:53;;;;;;;16.48;12.38;;;;;;;7.27;100.00;101665.66;5072823;28;20046;-73
2022/11/27 09:29:19;;;;;;;18.17;10.45;;;;;;;7.25;99.69;101657.84;5072654;28;20032;-75
2022/11/27 09:31:44;;;;;;;23.77;12.02;;;;;;;7.35;99.55;101664.50;5072686;28;20398;-73
2022/11/27 09:34:10;;;;;;;20.33;11.60;;;;;;;7.17;100.00;101652.97;5072456;28;20028;-74
2022/11/27 09:36:37;;;;;;;16.95;11.57;;;;;;;6.71;100.00;101574.47;5072865;28;20028;-73
2022/11/27 09:39:02;;;;;;;18.38;10.70;;;;;;;7.07;100.00;101643.72;5072325;28;20029;-71
2022/11/27 09:41:54;;;;;;;19.58;10.68;;;;;;;7.34;99.11;101641.25;5072531;28;20029;-71
2022/11/27 09:44:19;;;;;;;20.77;10.93;;;;;;;7.56;98.73;101639.41;5071888;28;20040;-73
2022/11/27 09:46:45;;;;;;;28.75;10.85;;;;;;;7.72;98.09;101627.56;5072401;28;20382;-71
2022/11/27 09:49:20;;;;;;;18.98;9.98;;;;;;;7.73;95.34;101608.78;5072614;28;20066;-74
2022/11/27 09:55:08;;;;;;;24.52;10.68;;;;;;;7.97;93.54;101606.94;5476940;23;20055;-71
2022/11/27 09:57:37;;;;;;;20.63;9.98;;;;;;;8.16;95.16;101621.94;5093156;28;20067;-72
2022/11/27 10:00:25;;;;;;;34.13;10.45;;;;;;;8.21;94.53;101615.38;5093010;28;20031;-71
2022/11/27 10:02:50;;;;;;;16.77;9.27;;;;;;;8.24;92.11;101612.13;5010540;28;20042;-73
2022/11/27 10:05:25;;;;;;;16.85;7.28;;;;;;;8.30;91.07;101602.22;5010633;28;20045;-71
2022/11/27 10:08:20;;;;;;;19.10;8.32;;;;;;;8.38;92.27;101606.16;5010404;28;20182;-76
2022/11/27 10:10:57;;;;;;;14.18;7.80;;;;;;;8.50;89.45;101600.06;5010629;28;20597;-71
2022/11/27 10:13:25;;;;;;;18.58;9.10;;;;;;;8.51;90.29;101597.59;5010410;28;20037;-71
2022/11/27 10:15:57;;;;;;;17.02;7.72;;;;;;;8.47;90.65;101582.75;5010438;28;20044;-71
2022/11/27 10:18:26;;;;;;;20.02;9.10;;;;;;;8.68;89.71;101592.63;5010353;28;20034;-71
2022/11/27 10:21:19;;;;;;;15.57;7.75;;;;;;;8.66;87.76;101583.91;5010477;28;20050;-71
2022/11/27 10:24:04;;;;;;;15.38;7.40;;;;;;;8.54;87.46;101532.56;5010363;28;20033;-72
2022/11/27 10:26:51;;;;;;;12.07;6.57;;;;;;;8.85;85.73;101555.94;5010010;28;20072;-70
2022/11/27 10:29:42;;;;;;;11.70;6.25;;;;;;;9.00;83.86;101574.00;5009342;28;20140;-70
2022/11/27 10:32:14;;;;;;;10.45;4.63;;;;;;;9.07;80.90;101580.41;5007497;28;20492;-70
2022/11/27 10:34:44;;;;;;;12.13;5.07;;;;;;;9.16;79.41;101573.25;5009636;28;20038;-70
2022/11/27 10:37:38;;;;;;;8.65;4.20;;;;;;;9.32;77.01;101571.59;5009599;28;20041;-70
2022/11/27 10:40:12;;;;;;;11.48;4.53;;;;;;;9.42;76.59;101573.94;5044632;28;20040;-71
2022/11/27 10:43:14;;;;;;;6.47;3.67;;;;;;;9.52;75.24;101565.94;5091660;28;20062;-70
2022/11/27 10:46:01;;;;;;;23.42;16.75;;;;;;;9.52;75.67;101557.28;5091875;28;20051;-70
2022/11/27 10:48:28;;;;;;;6.95;4.25;;;;;;;9.59;76.23;101558.56;5091785;28;20032;-70
2022/11/27 10:50:54;;;;;;;5.53;3.75;;;;;;;9.49;76.71;101524.50;5091622;28;20085;-71
2022/11/27 10:53:22;;;;;;;7.70;3.45;;;;;;;9.72;75.16;101543.03;5091643;28;20093;-71
2022/11/27 10:55:53;;;;;;;6.28;3.80;;;;;;;9.75;74.97;101535.44;5090302;28;20139;-73
2022/11/27 10:58:34;;;;;;;10.10;3.50;;;;;;;9.74;73.76;101523.34;5091573;28;20031;-74
2022/11/27 11:01:15;;;;;;;6.40;3.50;;;;;;;9.88;72.94;101529.28;5091399;28;20087;-73
2022/11/27 11:03:40;;;;;;;5.85;4.10;;;;;;;9.68;76.06;101487.81;5091355;28;20028;-74
2022/11/27 11:06:14;;;;;;;5.35;3.40;;;;;;;9.95;71.83;101526.25;5072970;28;20489;-72
2022/11/27 11:08:40;;;;;;;5.90;3.70;;;;;;;10.03;71.58;101517.25;5091436;28;20409;-72
2022/11/27 11:11:07;;;;;;;6.70;3.60;;;;;;;10.09;73.31;101511.53;5091263;28;20031;-71
2022/11/27 11:13:44;;;;;;;5.80;3.38;;;;;;;10.05;72.07;101509.59;5089637;28;20027;-72
2022/11/27 11:16:10;;;;;;;5.38;3.45;;;;;;;10.00;73.49;101505.88;5083178;28;20036;-73
2022/11/27 11:18:45;;;;;;;6.15;3.42;;;;;;;9.92;71.50;101504.56;5080380;28;20034;-73
2022/11/27 11:21:37;;;;;;;4.50;2.95;;;;;;;9.94;70.27;101510.69;5081647;28;20413;-73
2022/11/27 11:24:10;;;;;;;4.28;2.80;;;;;;;9.93;70.07;101512.41;5025333;28;20091;-73
2022/11/27 11:26:50;;;;;;;4.88;2.95;;;;;;;9.80;67.49;101494.44;5032606;28;20041;-73